Milltown, WI (54858)

3:07 AM CST on February 12, 2016 (GMT -0600)
Big Butternut Lake | | Change Station
CLOSE
Current Station
Personal Weather Station
Location: Luck, WI
Elevation: 1198 ft
Nearby Weather Stations

Elev 1198 ft 45.57 °N, 92.45 °W | Updated 10 seconds ago

Overcast
Overcast
11.8 °F
Feels Like -2 °F
N
11.0
Wind Variable Wind from NW
Gusts 16.0 mph

Today
High -- | Low -- °F
--% Chance of Precip.
Yesterday
High -- | Low -- °F
Precip. -- in
Pressure 30.21 in
Visibility 10.0 miles
Clouds Scattered Clouds 3700 ft
Windchill -2 °F
Dew Point 5 °F
Humidity 74%
Rainfall 0.00 in
Snow Depth Not available.
7:17 AM 5:32 PM
Waxing Crescent, 19% visible
METAR KOEO 120855Z AUTO 29008KT 10SM SCT037 M10/M13 A3021 RMK AO2 T11011128
Pressure 30.21 in
Visibility 10.0 miles
Clouds Scattered Clouds 3700 ft
Windchill -2 °F
Dew Point 5 °F
Humidity 74%
Rainfall 0.00 in
Snow Depth Not available.
7:17 AM 5:32 PM
Waxing Crescent, 19% visible
METAR KOEO 120855Z AUTO 29008KT 10SM SCT037 M10/M13 A3021 RMK AO2 T11011128

10-Day Weather Forecast

Almanac

Astronomy

Feb. 12, 2016 Rise Set
Actual Time
Civil Twilight
Nautical Twilight
Astronomical Twilight
Moon
Length of Visible Light
Length of Day
Tomorrow will be .
, % of the Moon is Illuminated

Today's Extremes

State Highs State Lows

Community

WunderPhotos

Upload Photos

1,892,286 photos uploaded!

WunderBlog® & News

Nearby

Air Quality

  Air Quality AQ Index Pollutant
Not available.

Snow Depth

Station Depth Elevation

Earthquake Activity

City Distance Mag. Time & Date
Minimum magnitude displayed is 2.5.

Coastal Water Temperatures

Place Temperature

Stations

Nearby Weather Stations

Station Location Temp. Windchill Dew Point Humidity Wind Precip. Elev Updated Type
                   

Watches & Warnings

There are currently no watches in effect.